Time;durP1;ratioP1;P1;durP2;ratioP2;P2;SDS_P1;SDS_P2;PMS_P1;PMS_P2;Temp;Humidity;BMP_temperature;BMP_pressure;BME280_temperature;BME280_humidity;BME280_pressure;Samples;Min_cycle;Max_cycle;Signal;HPM_P1;HPM_P2
2022/09/19 00:00:41;;;;;;;1.42;0.68;;;7.80;99.90;;;;;;5035986;28;20029;-71
2022/09/19 00:03:09;;;;;;;1.27;0.70;;;7.80;99.90;;;;;;5035992;28;20034;-72
2022/09/19 00:05:39;;;;;;;1.30;0.52;;;7.80;99.90;;;;;;5034392;28;20477;-71
2022/09/19 00:08:05;;;;;;;1.48;0.55;;;7.80;99.90;;;;;;5035769;28;20048;-72
2022/09/19 00:10:44;;;;;;;4.05;0.50;;;7.80;99.90;;;;;;5035738;28;20034;-71
2022/09/19 00:13:10;;;;;;;1.42;0.55;;;7.80;99.90;;;;;;5035495;28;20049;-71
2022/09/19 00:15:45;;;;;;;1.17;0.60;;;7.70;99.90;;;;;;5035714;28;20045;-72
2022/09/19 00:18:11;;;;;;;2.17;0.60;;;7.70;99.90;;;;;;5034541;28;20021;-70
2022/09/19 00:20:41;;;;;;;1.27;0.52;;;7.70;99.90;;;;;;5035422;28;20033;-72
2022/09/19 00:26:06;;;;;;;1.60;0.60;;;7.70;99.90;;;;;;5035868;28;20033;-71
2022/09/19 00:28:32;;;;;;;0.68;0.40;;;7.70;99.90;;;;;;5035629;28;20052;-71
2022/09/19 00:31:00;;;;;;;2.08;0.63;;;7.60;99.90;;;;;;5035122;28;20037;-72
2022/09/19 00:33:27;;;;;;;2.78;0.55;;;7.60;99.90;;;;;;5035117;28;20025;-72
2022/09/19 00:35:54;;;;;;;2.70;0.60;;;7.60;99.90;;;;;;5035122;28;20021;-71
2022/09/19 00:38:21;;;;;;;1.48;0.63;;;7.70;99.90;;;;;;5034310;28;20026;-71
2022/09/19 00:40:48;;;;;;;0.85;0.40;;;7.70;99.90;;;;;;5035259;28;20057;-72
2022/09/19 00:43:15;;;;;;;1.95;0.80;;;7.70;99.90;;;;;;5035044;28;20100;-72
2022/09/19 00:45:40;;;;;;;0.98;0.60;;;7.70;99.90;;;;;;5034956;28;20155;-71
2022/09/19 00:48:07;;;;;;;1.35;0.60;;;7.80;99.90;;;;;;5034934;28;20461;-71
2022/09/19 00:50:33;;;;;;;4.72;0.80;;;7.80;99.90;;;;;;5034808;28;20053;-71
2022/09/19 00:53:12;;;;;;;1.88;0.77;;;7.80;99.90;;;;;;5034748;28;20111;-71
2022/09/19 00:55:39;;;;;;;10.52;3.33;;;7.80;99.90;;;;;;5033426;28;20025;-71
2022/09/19 00:58:29;;;;;;;11.48;4.28;;;7.80;99.90;;;;;;5034687;28;20022;-71
2022/09/19 01:00:57;;;;;;;9.82;4.13;;;7.80;99.90;;;;;;5034566;28;20091;-71
2022/09/19 01:03:25;;;;;;;9.00;3.80;;;7.80;99.90;;;;;;5034582;28;20025;-71
2022/09/19 01:06:14;;;;;;;5.13;2.38;;;7.80;99.90;;;;;;5033282;28;20036;-71
2022/09/19 01:09:14;;;;;;;4.35;1.77;;;7.80;99.90;;;;;;5034303;28;20429;-70
2022/09/19 01:12:03;;;;;;;2.05;0.98;;;7.80;99.90;;;;;;5034586;28;20072;-71
2022/09/19 01:14:54;;;;;;;1.15;0.60;;;7.80;99.90;;;;;;4997521;28;20044;-71
2022/09/19 01:17:46;;;;;;;2.38;0.80;;;7.80;99.90;;;;;;5034631;28;20020;-71
2022/09/19 01:20:24;;;;;;;2.38;0.60;;;7.80;99.90;;;;;;5022656;28;20041;-71
2022/09/19 01:23:15;;;;;;;1.00;0.60;;;7.70;99.90;;;;;;5033893;28;20056;-70
2022/09/19 01:25:58;;;;;;;0.85;0.45;;;7.70;99.90;;;;;;5034512;28;20029;-71
2022/09/19 01:28:34;;;;;;;2.35;0.60;;;7.70;99.90;;;;;;5032873;28;20037;-72
2022/09/19 01:31:17;;;;;;;2.78;0.70;;;7.60;99.90;;;;;;5034092;28;20030;-71
2022/09/19 01:33:55;;;;;;;1.60;0.50;;;7.60;99.90;;;;;;5034300;28;20373;-71
2022/09/19 01:36:32;;;;;;;1.63;0.50;;;7.70;99.90;;;;;;5033981;28;20049;-71
2022/09/19 01:39:01;;;;;;;1.77;0.57;;;7.70;99.90;;;;;;5033772;28;20025;-71
2022/09/19 01:41:28;;;;;;;1.15;0.57;;;7.70;99.90;;;;;;5033862;28;20477;-71
2022/09/19 01:43:54;;;;;;;1.05;0.50;;;7.70;99.90;;;;;;5034117;28;20108;-72
2022/09/19 01:46:38;;;;;;;2.17;0.60;;;7.80;99.90;;;;;;5032414;28;20493;-71
2022/09/19 01:49:36;;;;;;;1.15;0.50;;;7.80;99.90;;;;;;5033294;28;20048;-71
2022/09/19 01:52:06;;;;;;;1.42;0.65;;;7.80;99.90;;;;;;5033561;28;20021;-71
2022/09/19 01:54:55;;;;;;;1.17;0.60;;;7.70;99.90;;;;;;5033427;28;20493;-71
2022/09/19 01:57:39;;;;;;;1.35;0.60;;;7.70;99.90;;;;;;5023029;28;20037;-72
2022/09/19 02:00:15;;;;;;;1.00;0.43;;;7.70;99.90;;;;;;5033816;28;20025;-71
2022/09/19 02:03:02;;;;;;;1.23;0.60;;;7.70;99.90;;;;;;5033467;28;20067;-72
2022/09/19 02:05:28;;;;;;;2.40;0.70;;;7.70;99.90;;;;;;5033581;28;20105;-72
2022/09/19 02:08:19;;;;;;;5.60;2.22;;;7.70;99.90;;;;;;5033206;28;20056;-72
2022/09/19 02:10:54;;;;;;;12.32;5.00;;;7.70;99.90;;;;;;5033656;28;20026;-73
2022/09/19 02:13:24;;;;;;;6.57;2.78;;;7.60;99.90;;;;;;5033338;28;20033;-73
2022/09/19 02:15:59;;;;;;;4.50;1.20;;;7.70;99.90;;;;;;5033275;28;20123;-73
2022/09/19 02:18:33;;;;;;;2.53;0.75;;;7.60;99.90;;;;;;5033390;28;20116;-73
2022/09/19 02:21:05;;;;;;;1.48;0.70;;;7.60;99.90;;;;;;5033394;28;20481;-74
2022/09/19 02:23:37;;;;;;;2.08;0.77;;;7.60;99.90;;;;;;5033052;28;20033;-73
2022/09/19 02:26:06;;;;;;;0.93;0.50;;;7.60;99.90;;;;;;5033560;28;20017;-75
2022/09/19 02:28:41;;;;;;;1.58;0.70;;;7.60;99.90;;;;;;5033464;28;20025;-74
2022/09/19 02:31:09;;;;;;;2.10;1.00;;;7.70;99.90;;;;;;5033305;28;20030;-74
2022/09/19 02:33:35;;;;;;;1.48;0.80;;;7.60;99.90;;;;;;5033675;28;20493;-73
2022/09/19 02:36:01;;;;;;;1.10;0.65;;;7.60;99.90;;;;;;5033128;28;20105;-74
2022/09/19 02:38:56;;;;;;;1.17;0.70;;;7.60;99.90;;;;;;5032885;28;20199;-73
2022/09/19 02:41:26;;;;;;;1.48;0.80;;;7.70;99.90;;;;;;5033188;28;20033;-73
2022/09/19 02:44:19;;;;;;;1.77;0.77;;;7.70;99.90;;;;;;5033320;28;20470;-73
2022/09/19 02:46:54;;;;;;;1.42;0.80;;;7.60;99.90;;;;;;5032938;28;20079;-73
2022/09/19 02:49:42;;;;;;;1.95;0.70;;;7.60;99.90;;;;;;5033016;28;20030;-73
2022/09/19 02:52:26;;;;;;;1.10;0.50;;;7.60;99.90;;;;;;5033413;28;20021;-72
2022/09/19 02:55:01;;;;;;;0.45;0.30;;;7.60;99.90;;;;;;5033134;28;20373;-73
2022/09/19 02:57:29;;;;;;;1.88;0.40;;;7.50;99.90;;;;;;5033076;28;20432;-73
2022/09/19 02:59:59;;;;;;;0.43;0.38;;;7.40;99.90;;;;;;5032980;28;20022;-73
2022/09/19 03:02:39;;;;;;;2.53;0.47;;;7.30;99.90;;;;;;5036980;28;20024;-73
2022/09/19 03:05:11;;;;;;;1.40;0.60;;;7.30;99.90;;;;;;5036884;28;20029;-74
2022/09/19 03:07:41;;;;;;;0.77;0.32;;;7.30;99.90;;;;;;5036860;28;20148;-72
2022/09/19 03:10:13;;;;;;;1.55;0.40;;;7.30;99.90;;;;;;5036597;28;20037;-73
2022/09/19 03:12:57;;;;;;;0.85;0.40;;;7.30;99.90;;;;;;5036516;28;20512;-73
2022/09/19 03:15:47;;;;;;;0.32;0.30;;;7.30;99.90;;;;;;5036712;28;20052;-73
2022/09/19 03:18:16;;;;;;;1.05;0.40;;;7.30;99.90;;;;;;5036477;28;20431;-73
2022/09/19 03:20:53;;;;;;;0.90;0.35;;;7.30;99.90;;;;;;5036569;28;20108;-72
2022/09/19 03:23:29;;;;;;;2.03;0.45;;;7.30;99.90;;;;;;5036548;28;20029;-73
2022/09/19 03:25:54;;;;;;;0.60;0.30;;;7.30;99.90;;;;;;5036410;28;20029;-73
2022/09/19 03:28:21;;;;;;;0.68;0.30;;;7.30;99.90;;;;;;5036362;28;20021;-72
2022/09/19 03:30:47;;;;;;;0.60;0.30;;;7.30;99.90;;;;;;5036309;28;20037;-72
2022/09/19 03:33:15;;;;;;;1.15;0.28;;;7.30;99.90;;;;;;5036109;28;20034;-72
2022/09/19 03:35:42;;;;;;;1.10;0.35;;;7.30;99.90;;;;;;5036262;28;20072;-72
2022/09/19 03:38:08;;;;;;;0.77;0.30;;;7.20;99.90;;;;;;5035987;28;20111;-72
2022/09/19 03:40:34;;;;;;;0.25;0.20;;;7.20;99.90;;;;;;5036171;28;20067;-72
2022/09/19 03:43:00;;;;;;;0.35;0.30;;;7.20;99.90;;;;;;5036403;28;20029;-72
2022/09/19 03:45:26;;;;;;;1.02;0.40;;;7.30;99.90;;;;;;5036565;28;20030;-73
2022/09/19 03:47:52;;;;;;;0.88;0.32;;;7.30;99.90;;;;;;5036467;28;20501;-73
2022/09/19 03:50:18;;;;;;;1.45;0.40;;;7.30;99.90;;;;;;5036223;28;20053;-72
2022/09/19 03:52:47;;;;;;;0.70;0.20;;;7.30;99.90;;;;;;5035795;28;20083;-72
2022/09/19 03:55:13;;;;;;;0.63;0.30;;;7.30;99.90;;;;;;5035673;28;20045;-72
2022/09/19 03:57:39;;;;;;;0.50;0.30;;;7.30;99.90;;;;;;5035851;28;20022;-72
2022/09/19 04:00:06;;;;;;;1.15;0.50;;;7.30;99.90;;;;;;5036077;28;20433;-71
2022/09/19 04:02:32;;;;;;;0.20;0.20;;;7.20;99.90;;;;;;5035686;28;20083;-72
2022/09/19 04:04:58;;;;;;;1.33;0.20;;;7.20;99.90;;;;;;5035756;28;20029;-72
2022/09/19 04:07:27;;;;;;;1.00;0.40;;;7.20;99.90;;;;;;5034673;28;20037;-72
2022/09/19 04:09:54;;;;;;;2.55;0.50;;;7.20;99.90;;;;;;5034254;28;20063;-71
2022/09/19 04:12:21;;;;;;;0.30;0.30;;;7.20;99.90;;;;;;5034650;28;20064;-72
2022/09/19 04:14:48;;;;;;;0.85;0.70;;;7.10;99.90;;;;;;5035576;28;20048;-72
2022/09/19 04:17:14;;;;;;;0.82;0.30;;;7.10;99.90;;;;;;5035724;28;20029;-72
2022/09/19 04:19:40;;;;;;;7.68;6.88;;;7.10;99.90;;;;;;5035508;28;20037;-72
2022/09/19 04:22:06;;;;;;;1.75;1.60;;;7.10;99.90;;;;;;5035431;28;20052;-71
2022/09/19 04:24:43;;;;;;;3.20;2.40;;;7.10;99.90;;;;;;5035067;28;20477;-71
2022/09/19 04:27:13;;;;;;;1.77;0.90;;;7.10;99.90;;;;;;5035590;28;20025;-71
2022/09/19 04:29:40;;;;;;;1.85;1.20;;;7.10;99.90;;;;;;5035547;28;20021;-72
2022/09/19 04:32:06;;;;;;;3.53;1.48;;;7.00;99.90;;;;;;5035154;28;20084;-71
2022/09/19 04:34:33;;;;;;;1.75;0.68;;;7.00;99.90;;;;;;5035186;28;20033;-71
2022/09/19 04:37:01;;;;;;;9.60;4.20;;;7.00;99.90;;;;;;5035404;28;20017;-70
2022/09/19 04:39:27;;;;;;;4.43;1.52;;;7.00;99.90;;;;;;5034829;28;20025;-71
2022/09/19 04:41:53;;;;;;;20.00;9.18;;;6.90;99.90;;;;;;5033853;28;20083;-72
2022/09/19 04:44:27;;;;;;;17.25;9.20;;;6.90;99.90;;;;;;5034824;28;20021;-71
2022/09/19 04:46:53;;;;;;;11.55;6.28;;;6.90;99.90;;;;;;5035105;28;20052;-70
2022/09/19 04:49:19;;;;;;;5.85;3.45;;;6.90;99.90;;;;;;5035203;28;20029;-70
2022/09/19 04:51:45;;;;;;;4.32;2.67;;;6.80;99.90;;;;;;5034587;28;20504;-70
2022/09/19 04:54:11;;;;;;;5.03;2.30;;;6.90;99.90;;;;;;5034522;28;20037;-70
2022/09/19 04:56:37;;;;;;;2.63;1.20;;;6.80;99.90;;;;;;5035025;28;20112;-70
2022/09/19 04:59:04;;;;;;;2.15;1.30;;;6.80;99.90;;;;;;5035006;28;20095;-70
2022/09/19 05:01:32;;;;;;;5.18;3.45;;;6.80;99.90;;;;;;5034592;28;20075;-69
2022/09/19 05:03:58;;;;;;;5.10;3.03;;;6.90;99.90;;;;;;5034683;28;20029;-69
2022/09/19 05:06:28;;;;;;;3.30;2.10;;;6.90;99.90;;;;;;5034608;28;20562;-69
2022/09/19 05:08:54;;;;;;;1.95;1.25;;;6.90;99.90;;;;;;5033015;28;20035;-69
2022/09/19 05:11:21;;;;;;;2.50;0.80;;;6.90;99.90;;;;;;5034878;28;20108;-69
2022/09/19 05:13:48;;;;;;;2.05;0.90;;;6.90;99.90;;;;;;5034417;28;20076;-69
2022/09/19 05:16:15;;;;;;;1.38;0.70;;;6.90;99.90;;;;;;5034651;28;20028;-69
2022/09/19 05:18:41;;;;;;;1.20;0.77;;;6.80;99.90;;;;;;5033125;28;20029;-70
2022/09/19 05:21:10;;;;;;;1.15;0.60;;;6.80;99.90;;;;;;5032914;28;20092;-69
2022/09/19 05:23:37;;;;;;;1.10;0.60;;;6.80;99.90;;;;;;5033930;28;20025;-69
2022/09/19 05:26:05;;;;;;;0.95;0.50;;;6.80;99.90;;;;;;5034182;28;20026;-69
2022/09/19 05:28:31;;;;;;;0.80;0.40;;;6.80;99.90;;;;;;5034169;28;20044;-69
2022/09/19 05:30:57;;;;;;;0.20;0.20;;;6.70;99.90;;;;;;5034029;28;20546;-69
2022/09/19 05:33:26;;;;;;;0.80;0.28;;;6.70;99.90;;;;;;5034011;28;20025;-69
2022/09/19 05:35:53;;;;;;;0.52;0.30;;;6.70;99.90;;;;;;5034036;28;20021;-69
2022/09/19 05:38:19;;;;;;;1.15;0.40;;;6.60;99.90;;;;;;5032423;28;20370;-70
2022/09/19 05:40:45;;;;;;;2.63;1.65;;;6.60;99.90;;;;;;5033909;28;20104;-70
2022/09/19 05:43:11;;;;;;;3.65;1.95;;;6.60;99.90;;;;;;5033850;28;20505;-69
2022/09/19 05:45:37;;;;;;;7.88;4.15;;;6.60;99.90;;;;;;5033840;28;20038;-70
2022/09/19 05:48:05;;;;;;;5.00;2.85;;;6.60;99.90;;;;;;5034073;28;20026;-69
2022/09/19 05:50:32;;;;;;;5.60;1.60;;;6.60;99.90;;;;;;5032438;28;20026;-71
2022/09/19 05:55:42;;;;;;;4.65;2.65;;;6.70;99.90;;;;;;5034243;28;20047;-69
2022/09/19 05:58:09;;;;;;;2.85;1.60;;;6.70;99.90;;;;;;5033908;28;20104;-69
2022/09/19 06:00:37;;;;;;;2.50;0.90;;;6.70;99.90;;;;;;5033554;28;20030;-69
2022/09/19 06:03:04;;;;;;;1.20;0.65;;;6.70;99.90;;;;;;5033557;28;20144;-70
2022/09/19 06:05:36;;;;;;;2.33;0.80;;;6.70;99.90;;;;;;5033549;28;20444;-70
2022/09/19 06:08:04;;;;;;;2.78;1.25;;;6.70;99.90;;;;;;5033786;28;20097;-70
2022/09/19 06:10:39;;;;;;;1.80;0.80;;;6.70;99.90;;;;;;5033199;28;20034;-70
2022/09/19 06:13:06;;;;;;;1.52;0.50;;;6.80;99.90;;;;;;5033675;28;20049;-70
2022/09/19 06:15:33;;;;;;;0.90;0.50;;;6.80;99.90;;;;;;5033920;28;20470;-70
2022/09/19 06:17:59;;;;;;;2.13;0.55;;;6.80;99.90;;;;;;5032340;28;20409;-70
2022/09/19 06:20:25;;;;;;;0.70;0.40;;;6.80;99.90;;;;;;5032033;28;20034;-70
2022/09/19 06:23:00;;;;;;;0.98;0.60;;;6.80;99.90;;;;;;5033150;28;20038;-70
2022/09/19 06:25:28;;;;;;;2.90;0.70;;;6.80;99.90;;;;;;5033066;28;20056;-70
2022/09/19 06:27:55;;;;;;;2.85;1.20;;;6.80;99.90;;;;;;5032016;28;20025;-70
2022/09/19 06:30:22;;;;;;;1.98;1.00;;;6.80;99.90;;;;;;5033475;28;20129;-70
2022/09/19 06:32:49;;;;;;;2.38;0.80;;;6.80;99.90;;;;;;5031743;28;20041;-70
2022/09/19 06:35:14;;;;;;;2.05;0.80;;;6.90;99.90;;;;;;5033175;28;20052;-70
2022/09/19 06:37:40;;;;;;;1.50;0.63;;;6.90;99.90;;;;;;5033142;28;20053;-70
2022/09/19 06:40:07;;;;;;;8.45;3.85;;;7.00;99.90;;;;;;5032935;28;20485;-70
2022/09/19 06:42:32;;;;;;;7.38;2.70;;;7.00;99.90;;;;;;5033069;28;20030;-70
2022/09/19 06:44:58;;;;;;;4.18;1.80;;;7.00;99.90;;;;;;5033019;28;20113;-70
2022/09/19 06:47:23;;;;;;;2.92;1.25;;;7.10;99.90;;;;;;5031871;28;20032;-70
2022/09/19 06:49:49;;;;;;;3.72;0.80;;;7.00;99.90;;;;;;5031792;28;20058;-70
2022/09/19 06:52:18;;;;;;;1.23;0.52;;;7.00;99.90;;;;;;5032838;28;20489;-70
2022/09/19 06:54:43;;;;;;;1.42;0.70;;;7.00;99.90;;;;;;5031399;28;20021;-70
2022/09/19 06:57:11;;;;;;;3.80;2.00;;;7.00;99.90;;;;;;5032894;28;20100;-70
2022/09/19 06:59:38;;;;;;;3.78;1.60;;;7.00;99.90;;;;;;5015434;28;20029;-71
2022/09/19 07:02:04;;;;;;;2.63;1.50;;;7.00;99.90;;;;;;5032892;28;20034;-70
2022/09/19 07:04:30;;;;;;;2.28;1.05;;;7.00;99.90;;;;;;5031600;28;20394;-70
2022/09/19 07:06:56;;;;;;;2.10;1.08;;;7.00;99.90;;;;;;5032868;28;20030;-70
2022/09/19 07:09:23;;;;;;;1.88;1.00;;;7.00;99.90;;;;;;5032614;28;20489;-70
2022/09/19 07:11:53;;;;;;;2.75;1.50;;;7.00;99.90;;;;;;5032834;28;20021;-70
2022/09/19 07:14:19;;;;;;;4.30;2.20;;;7.10;99.90;;;;;;5032767;28;20026;-70
2022/09/19 07:16:45;;;;;;;2.60;1.60;;;7.10;99.90;;;;;;5032785;28;20030;-70
2022/09/19 07:19:11;;;;;;;3.30;1.60;;;7.10;99.90;;;;;;5031572;28;20039;-70
2022/09/19 07:21:36;;;;;;;2.85;1.70;;;7.20;99.90;;;;;;5014823;28;20083;-70
2022/09/19 07:24:04;;;;;;;4.88;2.03;;;7.20;99.90;;;;;;5032386;28;20511;-70
2022/09/19 07:26:30;;;;;;;5.40;3.40;;;7.20;99.90;;;;;;5032616;28;20048;-70
2022/09/19 07:28:55;;;;;;;4.03;2.78;;;7.20;99.90;;;;;;5031836;28;20025;-70
2022/09/19 07:31:21;;;;;;;1.92;1.10;;;7.20;99.90;;;;;;5032510;28;20033;-71
2022/09/19 07:33:48;;;;;;;2.65;1.10;;;7.30;99.90;;;;;;5032711;28;20033;-70
2022/09/19 07:36:14;;;;;;;2.90;1.35;;;7.30;99.90;;;;;;5032582;28;20030;-70
2022/09/19 07:38:39;;;;;;;1.48;0.80;;;7.30;99.90;;;;;;5033108;28;20588;-70
2022/09/19 07:41:06;;;;;;;2.17;1.00;;;7.30;99.90;;;;;;5032402;28;20022;-71
2022/09/19 07:43:31;;;;;;;2.90;0.68;;;7.30;99.90;;;;;;5032501;28;20025;-69
2022/09/19 07:45:57;;;;;;;4.55;1.70;;;7.40;99.90;;;;;;5032461;28;20028;-70
2022/09/19 07:48:23;;;;;;;2.85;0.70;;;7.40;99.90;;;;;;5033020;28;20456;-70
2022/09/19 07:50:49;;;;;;;1.45;0.70;;;7.40;99.90;;;;;;5034636;28;20033;-70
2022/09/19 07:53:21;;;;;;;1.98;0.80;;;7.50;99.90;;;;;;5034554;28;20033;-70
2022/09/19 07:55:52;;;;;;;4.55;1.10;;;7.40;99.90;;;;;;5035670;28;20559;-70
2022/09/19 07:58:18;;;;;;;1.48;0.80;;;7.40;99.90;;;;;;5034929;28;20045;-70
2022/09/19 08:00:45;;;;;;;1.10;0.68;;;7.40;99.90;;;;;;5035928;28;20033;-70
2022/09/19 08:03:13;;;;;;;1.33;0.65;;;7.50;99.90;;;;;;5034735;28;20108;-70
2022/09/19 08:05:41;;;;;;;3.22;1.00;;;7.50;99.90;;;;;;5035714;28;20026;-70
2022/09/19 08:08:10;;;;;;;1.45;0.60;;;7.50;99.90;;;;;;5035933;28;20529;-70
2022/09/19 08:10:37;;;;;;;2.13;0.68;;;7.60;99.90;;;;;;5035351;28;20040;-70
2022/09/19 08:13:04;;;;;;;2.13;0.65;;;7.60;99.90;;;;;;5035761;28;20025;-70
2022/09/19 08:15:32;;;;;;;2.13;0.52;;;7.70;99.90;;;;;;5035435;28;20608;-70
2022/09/19 08:18:03;;;;;;;1.92;0.70;;;7.70;99.90;;;;;;5034485;28;20132;-70
2022/09/19 08:20:31;;;;;;;2.08;0.80;;;7.70;99.90;;;;;;5034036;28;20041;-70
2022/09/19 08:23:03;;;;;;;3.83;1.13;;;7.80;99.90;;;;;;5035877;28;20057;-70
2022/09/19 08:25:32;;;;;;;3.22;1.02;;;7.80;99.90;;;;;;5035087;28;20390;-70
2022/09/19 08:27:57;;;;;;;3.85;0.95;;;7.90;99.90;;;;;;5035265;28;20021;-71
2022/09/19 08:30:24;;;;;;;3.20;1.00;;;8.00;99.90;;;;;;5034267;28;20025;-70
2022/09/19 08:32:51;;;;;;;2.17;1.05;;;8.00;99.90;;;;;;5035610;28;20032;-73
2022/09/19 08:35:18;;;;;;;1.58;0.70;;;8.10;99.90;;;;;;5035161;28;20052;-73
2022/09/19 08:37:44;;;;;;;2.33;1.10;;;8.10;99.90;;;;;;5035132;28;20017;-73
2022/09/19 08:40:26;;;;;;;4.78;1.00;;;8.10;99.90;;;;;;5035128;28;20071;-73
2022/09/19 08:43:09;;;;;;;2.40;0.73;;;8.20;99.90;;;;;;5035010;28;20029;-73
2022/09/19 08:46:08;;;;;;;5.07;1.08;;;8.20;99.90;;;;;;5035153;28;20021;-72
2022/09/19 08:49:06;;;;;;;3.53;0.77;;;8.30;99.90;;;;;;5033566;28;20083;-73
2022/09/19 08:51:47;;;;;;;3.00;0.65;;;8.30;99.90;;;;;;5030679;28;20048;-72
2022/09/19 08:54:18;;;;;;;2.63;0.68;;;8.30;99.90;;;;;;5035343;28;20037;-73
2022/09/19 08:56:44;;;;;;;4.10;0.70;;;8.40;99.90;;;;;;5035080;28;20083;-73
2022/09/19 08:59:15;;;;;;;3.65;0.90;;;8.40;99.90;;;;;;5034245;28;20029;-72
2022/09/19 09:01:41;;;;;;;3.37;0.87;;;8.40;99.90;;;;;;5034671;28;20492;-73
2022/09/19 09:04:31;;;;;;;4.75;1.02;;;8.50;99.90;;;;;;5034570;28;20029;-69
2022/09/19 09:07:05;;;;;;;4.35;0.60;;;8.50;99.90;;;;;;5034619;28;20025;-72
2022/09/19 09:10:01;;;;;;;5.05;0.80;;;8.50;99.90;;;;;;5034964;28;20044;-72
2022/09/19 09:12:58;;;;;;;1.67;0.50;;;8.50;99.90;;;;;;5034422;28;20025;-69
2022/09/19 09:15:58;;;;;;;2.28;0.50;;;8.50;99.90;;;;;;4997253;28;20033;-73
2022/09/19 09:18:30;;;;;;;2.63;0.40;;;8.50;99.90;;;;;;5034445;28;20031;-71
2022/09/19 09:21:20;;;;;;;1.38;0.40;;;8.50;99.90;;;;;;5034410;28;20109;-72
2022/09/19 09:23:51;;;;;;;1.23;0.52;;;8.50;99.90;;;;;;5034568;28;20492;-72
2022/09/19 09:26:22;;;;;;;3.50;1.00;;;8.40;99.90;;;;;;5034551;28;20072;-72
2022/09/19 09:28:52;;;;;;;4.88;0.40;;;8.50;99.90;;;;;;5034212;28;20481;-72
2022/09/19 09:31:40;;;;;;;2.05;0.60;;;8.50;99.90;;;;;;5034066;28;20033;-73
2022/09/19 09:34:16;;;;;;;3.80;0.60;;;8.60;99.90;;;;;;5034274;28;20381;-72
2022/09/19 09:36:55;;;;;;;3.20;1.10;;;8.70;99.90;;;;;;5034048;28;20070;-72
2022/09/19 09:39:20;;;;;;;2.72;1.10;;;8.70;99.90;;;;;;5033731;28;20067;-72
2022/09/19 09:41:50;;;;;;;2.40;0.88;;;8.80;99.90;;;;;;5033846;28;20025;-72
2022/09/19 09:44:39;;;;;;;4.00;0.90;;;8.90;99.90;;;;;;5033817;28;20029;-72
2022/09/19 09:47:24;;;;;;;3.42;0.90;;;8.90;99.90;;;;;;5032608;28;20497;-72
2022/09/19 09:49:58;;;;;;;3.10;0.77;;;8.90;99.90;;;;;;5032451;28;20120;-72
2022/09/19 09:52:53;;;;;;;3.97;1.02;;;9.00;99.90;;;;;;5033698;28;20408;-71
2022/09/19 09:58:27;;;;;;;4.40;1.40;;;9.00;99.90;;;;;;5033664;28;20075;-72
2022/09/19 10:04:30;;;;;;;5.57;0.90;;;9.10;99.90;;;;;;5033810;28;20036;-72
2022/09/19 10:07:09;;;;;;;2.20;1.05;;;9.20;99.90;;;;;;5034029;28;20108;-72
2022/09/19 10:09:40;;;;;;;8.13;2.60;;;9.20;99.90;;;;;;5033023;28;20022;-72
2022/09/19 10:12:33;;;;;;;6.78;1.30;;;9.10;99.90;;;;;;5032927;28;20136;-72
2022/09/19 10:15:05;;;;;;;4.10;0.65;;;9.10;99.90;;;;;;5032354;28;20474;-72
2022/09/19 10:17:39;;;;;;;3.40;0.77;;;9.10;99.90;;;;;;5033543;28;20025;-72
2022/09/19 10:20:11;;;;;;;2.53;0.77;;;9.10;99.90;;;;;;5033192;28;20022;-72
2022/09/19 10:22:37;;;;;;;5.70;0.95;;;9.20;99.90;;;;;;5033269;28;20041;-72
2022/09/19 10:25:12;;;;;;;4.85;0.93;;;9.20;99.90;;;;;;5031726;28;20029;-71
2022/09/19 10:27:41;;;;;;;3.58;0.70;;;9.20;99.90;;;;;;5033206;28;20033;-71
2022/09/19 10:30:19;;;;;;;6.70;2.33;;;9.40;99.90;;;;;;5033471;28;20162;-72
2022/09/19 10:32:47;;;;;;;5.75;1.20;;;9.40;99.90;;;;;;5033065;28;20025;-72
2022/09/19 10:35:25;;;;;;;3.55;0.65;;;9.40;99.90;;;;;;5033324;28;20022;-71
2022/09/19 10:38:01;;;;;;;2.22;0.68;;;9.40;99.90;;;;;;5033107;28;20018;-72
2022/09/19 10:40:29;;;;;;;3.55;0.88;;;9.40;99.90;;;;;;5032952;28;20500;-71
2022/09/19 10:42:55;;;;;;;5.22;1.00;;;9.50;99.90;;;;;;5033178;28;20040;-72
2022/09/19 10:45:33;;;;;;;3.38;1.00;;;9.50;99.90;;;;;;5033059;28;20026;-72
2022/09/19 10:48:07;;;;;;;3.35;0.77;;;9.60;99.90;;;;;;5033012;28;20022;-72
2022/09/19 10:50:33;;;;;;;6.63;1.80;;;9.70;99.90;;;;;;5033166;28;20610;-71
2022/09/19 10:53:02;;;;;;;5.07;0.90;;;9.70;99.90;;;;;;5033191;28;20116;-71
2022/09/19 10:55:33;;;;;;;3.33;1.42;;;9.70;99.90;;;;;;5032804;28;20028;-71
2022/09/19 10:58:03;;;;;;;2.28;0.90;;;9.70;99.90;;;;;;5031863;28;20524;-72
2022/09/19 11:00:49;;;;;;;5.28;1.02;;;9.70;99.90;;;;;;5033288;28;20026;-71
2022/09/19 11:03:31;;;;;;;5.10;1.00;;;9.80;99.90;;;;;;5032406;28;20233;-70
2022/09/19 11:06:16;;;;;;;3.88;0.70;;;9.80;99.90;;;;;;5032746;28;20098;-72
2022/09/19 11:08:53;;;;;;;3.22;0.80;;;9.80;99.90;;;;;;5033021;28;20036;-72
2022/09/19 11:11:48;;;;;;;4.00;0.98;;;9.90;99.90;;;;;;5032719;28;20474;-72
2022/09/19 11:14:18;;;;;;;2.75;0.88;;;9.80;99.90;;;;;;5033242;28;20025;-72
2022/09/19 11:17:05;;;;;;;3.72;1.20;;;9.70;99.90;;;;;;5033253;28;20430;-72
2022/09/19 11:19:46;;;;;;;6.78;1.50;;;9.60;99.90;;;;;;5031928;28;20485;-72
2022/09/19 11:22:31;;;;;;;2.80;1.00;;;9.60;99.90;;;;;;5033275;28;20026;-72
2022/09/19 11:25:18;;;;;;;2.20;0.55;;;9.70;99.90;;;;;;5036527;28;20029;-69
2022/09/19 11:27:49;;;;;;;3.28;0.80;;;9.80;99.90;;;;;;5031163;28;20026;-72
2022/09/19 11:30:31;;;;;;;3.72;1.10;;;9.90;99.90;;;;;;5036536;28;20040;-72
2022/09/19 11:33:22;;;;;;;2.80;0.85;;;9.90;99.90;;;;;;5036563;28;20524;-72
2022/09/19 11:35:58;;;;;;;3.00;0.80;;;9.90;99.90;;;;;;5031061;28;20018;-71
2022/09/19 11:39:03;;;;;;;2.17;0.85;;;9.90;99.90;;;;;;5035118;28;20075;-72
2022/09/19 11:41:43;;;;;;;2.00;0.70;;;9.90;99.90;;;;;;5007859;28;20405;-71
2022/09/19 11:44:36;;;;;;;1.38;0.55;;;9.90;99.90;;;;;;5036299;28;20028;-71
2022/09/19 11:47:06;;;;;;;1.90;0.50;;;9.90;99.90;;;;;;5036275;28;20112;-72
2022/09/19 11:50:10;;;;;;;3.78;0.80;;;10.00;99.90;;;;;;5035938;28;20025;-72
2022/09/19 11:52:50;;;;;;;3.38;0.70;;;10.00;99.90;;;;;;5035878;28;20386;-72
2022/09/19 11:55:35;;;;;;;3.90;1.30;;;10.10;99.90;;;;;;5035935;28;20100;-71
2022/09/19 11:58:12;;;;;;;2.70;0.68;;;10.10;99.90;;;;;;5036071;28;20338;-72
2022/09/19 12:01:20;;;;;;;5.63;0.50;;;10.20;99.90;;;;;;5035992;28;20031;-72
2022/09/19 12:04:02;;;;;;;0.32;0.30;;;10.20;99.90;;;;;;5037645;28;20103;-72
2022/09/19 12:07:07;;;;;;;1.75;0.47;;;10.20;99.90;;;;;;5055058;28;20031;-72
2022/09/19 12:09:43;;;;;;;1.25;0.40;;;10.30;99.90;;;;;;5031761;28;20025;-71
2022/09/19 12:12:13;;;;;;;2.47;0.40;;;10.30;99.90;;;;;;5035703;28;20048;-72
2022/09/19 12:14:52;;;;;;;1.45;0.52;;;10.30;99.90;;;;;;5035824;28;20028;-71
2022/09/19 12:17:32;;;;;;;2.13;0.50;;;10.40;99.90;;;;;;5035824;28;20549;-72
2022/09/19 12:20:23;;;;;;;4.65;0.60;;;10.40;99.90;;;;;;5037470;28;20048;-72
2022/09/19 12:22:55;;;;;;;2.63;0.75;;;10.40;99.90;;;;;;5035664;28;20482;-72
2022/09/19 12:25:28;;;;;;;3.70;1.75;;;10.50;99.90;;;;;;5041926;28;20108;-71
2022/09/19 12:28:00;;;;;;;5.07;2.60;;;10.50;99.90;;;;;;5034316;28;20036;-72
2022/09/19 12:30:31;;;;;;;6.60;1.77;;;10.60;99.90;;;;;;5035516;28;20075;-72
2022/09/19 12:33:21;;;;;;;3.15;0.80;;;10.60;99.90;;;;;;5041106;28;20221;-71
2022/09/19 12:35:51;;;;;;;1.10;0.50;;;10.60;99.90;;;;;;5035280;28;20288;-69
2022/09/19 12:38:25;;;;;;;3.05;0.68;;;10.50;99.90;;;;;;5051452;28;20104;-72
2022/09/19 12:40:58;;;;;;;2.45;0.50;;;10.40;99.90;;;;;;5054168;28;20025;-71
2022/09/19 12:43:54;;;;;;;3.42;1.20;;;10.40;99.90;;;;;;5054437;28;20028;-71
2022/09/19 12:46:33;;;;;;;5.93;1.20;;;10.40;99.90;;;;;;5054304;28;20025;-72
2022/09/19 12:49:03;;;;;;;2.90;1.23;;;10.40;99.90;;;;;;5046385;28;20025;-72
2022/09/19 12:51:57;;;;;;;6.13;2.20;;;10.40;99.90;;;;;;5045324;28;20021;-72
2022/09/19 12:54:45;;;;;;;5.45;3.28;;;10.40;99.90;;;;;;5052874;28;20025;-72
2022/09/19 12:57:36;;;;;;;4.55;2.80;;;10.50;99.90;;;;;;5054197;28;20028;-72
2022/09/19 13:00:04;;;;;;;1.98;0.82;;;10.50;99.90;;;;;;5047711;28;20022;-72
2022/09/19 13:02:43;;;;;;;3.92;1.33;;;10.60;99.90;;;;;;5054069;28;20036;-72
2022/09/19 13:05:22;;;;;;;3.55;0.80;;;10.60;99.90;;;;;;5053877;28;20063;-72
2022/09/19 13:08:17;;;;;;;2.05;0.50;;;10.60;99.90;;;;;;5050815;28;20041;-71
2022/09/19 13:10:49;;;;;;;4.85;0.70;;;10.70;99.90;;;;;;5032956;28;20037;-72
2022/09/19 13:13:26;;;;;;;3.72;0.88;;;10.70;99.90;;;;;;5034671;28;20436;-71
2022/09/19 13:16:04;;;;;;;3.08;0.60;;;10.80;99.90;;;;;;5034963;28;20402;-71
2022/09/19 13:23:30;;;;;;;2.72;0.65;;;11.10;99.90;;;;;;5038638;28;20080;-71
2022/09/19 13:24:43;;;;;;;2.22;0.50;;;11.20;99.90;;;;;;5034367;28;20402;-70
2022/09/19 13:27:09;;;;;;;3.65;0.40;;;11.30;99.90;;;;;;5034394;28;20029;-70
2022/09/19 13:29:35;;;;;;;3.38;0.45;;;11.30;99.90;;;;;;5034043;28;20057;-70
2022/09/19 13:32:24;;;;;;;4.93;0.43;;;11.30;99.90;;;;;;5033903;28;20381;-70
2022/09/19 13:35:06;;;;;;;4.38;1.77;;;11.20;99.90;;;;;;5032657;28;20112;-70
2022/09/19 13:37:34;;;;;;;3.08;0.90;;;11.20;99.90;;;;;;5032656;28;20030;-70
2022/09/19 13:40:06;;;;;;;3.20;0.65;;;11.10;99.90;;;;;;5032691;28;20032;-70
2022/09/19 13:42:44;;;;;;;1.55;0.60;;;11.00;99.90;;;;;;5034040;28;20381;-70